createdAt,value
2019-03-16T00:00:40.640Z,99.99
2019-03-16T00:01:40.729Z,99.99
2019-03-16T00:02:40.821Z,99.99
2019-03-16T00:03:40.916Z,99.99
2019-03-16T00:04:41.006Z,99.99
2019-03-16T00:05:41.099Z,99.99
2019-03-16T00:06:41.187Z,99.99
2019-03-16T00:07:41.277Z,99.99
2019-03-16T00:08:41.369Z,99.99
2019-03-16T00:09:41.481Z,99.99
2019-03-16T00:10:41.553Z,99.99
2019-03-16T00:11:41.693Z,99.99
2019-03-16T00:12:41.734Z,99.99
2019-03-16T00:13:41.825Z,99.99
2019-03-16T00:14:41.914Z,99.99
2019-03-16T00:15:42.004Z,99.99
2019-03-16T00:16:42.097Z,98.03
2019-03-16T00:17:42.187Z,97.74
2019-03-16T00:18:42.277Z,98.13
2019-03-16T00:19:42.368Z,97.84
2019-03-16T00:20:42.458Z,97.27
2019-03-16T00:21:42.547Z,97.36
2019-03-16T00:22:42.659Z,97.55
2019-03-16T00:23:42.734Z,97.36
2019-03-16T00:24:42.820Z,95.94
2019-03-16T00:25:42.951Z,95.84
2019-03-16T00:26:43.054Z,95.75
2019-03-16T00:27:43.144Z,96.51
2019-03-16T00:28:43.234Z,96.74
2019-03-16T00:29:43.319Z,95.84
2019-03-16T00:30:43.408Z,95.65
2019-03-16T00:31:43.497Z,95.84
2019-03-16T00:32:43.587Z,95.36
2019-03-16T00:33:43.680Z,95.75
2019-03-16T00:34:43.770Z,96.31
2019-03-16T00:35:43.861Z,95.56
2019-03-16T00:36:43.952Z,95.27
2019-03-16T00:37:44.040Z,96.03
2019-03-16T00:38:44.130Z,97.65
2019-03-16T00:39:44.223Z,97.08
2019-03-16T00:40:44.310Z,96.98
2019-03-16T00:41:44.410Z,97.55
2019-03-16T00:42:44.499Z,97.27
2019-03-16T00:43:44.617Z,97.55
2019-03-16T00:44:44.694Z,97.17
2019-03-16T00:45:44.756Z,97.27
2019-03-16T00:46:44.869Z,97.84
2019-03-16T00:47:44.931Z,97.93
2019-03-16T00:48:45.022Z,98.32
2019-03-16T00:49:45.107Z,98.22
2019-03-16T00:50:45.200Z,98.22
2019-03-16T00:51:45.290Z,98.13
2019-03-16T00:52:45.384Z,98.13
2019-03-16T00:53:45.473Z,98.32
2019-03-16T00:54:45.558Z,98.22
2019-03-16T00:55:45.650Z,98.69
2019-03-16T00:56:45.743Z,98.69
2019-03-16T00:57:45.830Z,98.60
2019-03-16T00:58:45.920Z,98.79
2019-03-16T00:59:46.014Z,98.79
2019-03-16T01:00:46.102Z,98.88
2019-03-16T01:01:46.194Z,98.79
2019-03-16T01:02:46.288Z,98.79
2019-03-16T01:03:46.373Z,98.69
2019-03-16T01:04:46.464Z,98.65
2019-03-16T01:05:46.559Z,98.60
2019-03-16T01:06:46.648Z,98.17
2019-03-16T01:07:46.738Z,99.02
2019-03-16T01:08:46.828Z,98.79
2019-03-16T01:09:46.918Z,98.79
2019-03-16T01:10:47.011Z,98.79
2019-03-16T01:11:47.096Z,98.50
2019-03-16T01:12:47.189Z,98.79
2019-03-16T01:13:47.282Z,98.50
2019-03-16T01:14:47.371Z,98.41
2019-03-16T01:15:47.463Z,98.22
2019-03-16T01:16:47.564Z,98.46
2019-03-16T01:17:47.644Z,98.79
2019-03-16T01:18:47.733Z,99.12
2019-03-16T01:19:47.820Z,99.36
2019-03-16T01:20:47.907Z,98.79
2019-03-16T01:21:47.997Z,98.69
2019-03-16T01:22:48.086Z,98.88
2019-03-16T01:23:48.181Z,98.03
2019-03-16T01:24:48.273Z,98.03
2019-03-16T01:25:48.365Z,97.27
2019-03-16T01:26:48.470Z,97.17
2019-03-16T01:27:48.559Z,97.93
2019-03-16T01:28:48.681Z,97.65
2019-03-16T01:29:48.758Z,97.55
2019-03-16T01:30:48.814Z,97.08
2019-03-16T01:31:48.930Z,97.17
2019-03-16T01:32:48.996Z,97.46
2019-03-16T01:33:49.082Z,97.27
2019-03-16T01:34:49.167Z,97.27
2019-03-16T01:35:49.261Z,97.46
2019-03-16T01:36:49.348Z,96.98
2019-03-16T01:37:49.437Z,96.51
2019-03-16T01:38:49.531Z,96.12
2019-03-16T01:39:49.613Z,96.79
2019-03-16T01:40:49.711Z,96.51
2019-03-16T01:41:49.814Z,96.03
2019-03-16T01:42:49.960Z,96.79
2019-03-16T01:43:49.991Z,96.51
2019-03-16T01:44:50.080Z,97.08
2019-03-16T01:45:50.172Z,97.27
2019-03-16T01:46:50.265Z,97.27
2019-03-16T01:47:50.355Z,96.89
2019-03-16T01:48:50.438Z,96.98
2019-03-16T01:49:50.525Z,96.98
2019-03-16T01:50:50.626Z,96.51
2019-03-16T01:51:50.719Z,96.98
2019-03-16T01:52:50.811Z,96.89
2019-03-16T01:53:50.897Z,96.89
2019-03-16T01:54:51.005Z,97.36
2019-03-16T01:55:51.085Z,96.89
2019-03-16T01:56:51.179Z,96.79
2019-03-16T01:57:51.269Z,97.27
2019-03-16T01:58:51.358Z,97.36
2019-03-16T01:59:51.448Z,97.65
2019-03-16T02:00:51.539Z,97.84
2019-03-16T02:01:51.628Z,97.55
2019-03-16T02:02:55.596Z,97.27
2019-03-16T02:03:51.806Z,97.08
2019-03-16T02:04:51.893Z,97.55
2019-03-16T02:05:51.986Z,97.27
2019-03-16T02:06:52.078Z,97.69
2019-03-16T02:07:52.164Z,98.79
2019-03-16T02:08:52.259Z,98.22
2019-03-16T02:09:52.345Z,98.13
2019-03-16T02:10:52.436Z,97.50
2019-03-16T02:11:52.545Z,97.65
2019-03-16T02:12:52.638Z,97.88
2019-03-16T02:13:52.724Z,98.08
2019-03-16T02:14:52.821Z,98.08
2019-03-16T02:15:52.900Z,98.08
2019-03-16T02:16:53.032Z,98.08
2019-03-16T02:17:53.124Z,97.88
2019-03-16T02:18:53.218Z,97.79
2019-03-16T02:19:53.305Z,97.60
2019-03-16T02:20:53.393Z,97.31
2019-03-16T02:21:53.483Z,97.98
2019-03-16T02:22:53.575Z,97.98
2019-03-16T02:23:53.664Z,97.17
2019-03-16T02:24:53.760Z,97.27
2019-03-16T02:25:53.855Z,97.27
2019-03-16T02:26:53.942Z,96.89
2019-03-16T02:27:54.033Z,96.98
2019-03-16T02:28:54.122Z,97.08
2019-03-16T02:29:54.211Z,97.36
2019-03-16T02:30:54.302Z,97.17
2019-03-16T02:31:54.395Z,97.27
2019-03-16T02:33:11.067Z,96.79
2019-03-16T02:33:54.574Z,96.79
2019-03-16T02:34:54.661Z,96.79
2019-03-16T02:35:54.741Z,96.60
2019-03-16T02:36:54.826Z,96.74
2019-03-16T02:37:54.916Z,96.65
2019-03-16T02:38:55.005Z,97.36
2019-03-16T02:39:55.095Z,97.17
2019-03-16T02:40:55.182Z,97.31
2019-03-16T02:41:55.287Z,97.41
2019-03-16T02:42:55.370Z,97.60
2019-03-16T02:43:55.447Z,97.50
2019-03-16T02:44:55.561Z,97.69
2019-03-16T02:45:55.647Z,97.65
2019-03-16T02:46:55.735Z,97.93
2019-03-16T02:47:55.824Z,97.50
2019-03-16T02:48:55.918Z,97.88
2019-03-16T02:49:56.044Z,97.79
2019-03-16T02:50:56.097Z,97.79
2019-03-16T02:51:56.189Z,97.50
2019-03-16T02:52:56.282Z,98.36
2019-03-16T02:53:56.367Z,98.17
2019-03-16T02:54:56.467Z,98.08
2019-03-16T02:55:56.549Z,98.17
2019-03-16T02:56:56.636Z,97.88
2019-03-16T02:57:56.721Z,98.83
2019-03-16T02:58:56.837Z,98.65
2019-03-16T02:59:56.899Z,98.27
2019-03-16T03:00:57.060Z,98.74
2019-03-16T03:01:57.033Z,98.74
2019-03-16T03:02:57.124Z,99.12
2019-03-16T03:03:57.203Z,98.93
2019-03-16T03:04:57.302Z,99.12
2019-03-16T03:05:57.389Z,99.60
2019-03-16T03:06:57.478Z,99.31
2019-03-16T03:07:57.570Z,99.41
2019-03-16T03:08:57.657Z,99.79
2019-03-16T03:09:57.746Z,99.99
2019-03-16T03:10:57.834Z,99.98
2019-03-16T03:11:57.927Z,99.99
2019-03-16T03:12:58.021Z,99.99
2019-03-16T03:13:58.110Z,99.99
2019-03-16T03:14:58.203Z,99.99
2019-03-16T03:15:58.290Z,99.99
2019-03-16T03:16:58.375Z,99.99
2019-03-16T03:17:58.468Z,99.99
2019-03-16T03:18:58.590Z,99.99
2019-03-16T03:19:58.647Z,99.99
2019-03-16T03:20:58.752Z,99.99
2019-03-16T03:21:58.873Z,99.99
2019-03-16T03:22:58.971Z,99.99
2019-03-16T03:23:59.008Z,99.99
2019-03-16T03:24:59.103Z,99.99
2019-03-16T03:25:59.241Z,99.99
2019-03-16T03:26:59.280Z,99.99
2019-03-16T03:27:59.371Z,99.99
2019-03-16T03:28:59.461Z,99.99
2019-03-16T03:29:59.552Z,99.99
2019-03-16T03:30:59.644Z,99.88
2019-03-16T03:31:59.733Z,99.31
2019-03-16T03:32:59.832Z,99.31
2019-03-16T03:34:02.420Z,99.31
2019-03-16T03:35:00.009Z,99.88
2019-03-16T03:36:00.096Z,99.50
2019-03-16T03:37:00.188Z,99.99
2019-03-16T03:38:00.384Z,99.99
2019-03-16T03:39:00.368Z,99.79
2019-03-16T03:40:00.466Z,99.79
2019-03-16T03:41:01.805Z,99.99
2019-03-16T03:42:00.643Z,99.99
2019-03-16T03:43:00.717Z,99.99
2019-03-16T03:44:00.805Z,99.69
2019-03-16T03:45:00.923Z,99.50
2019-03-16T03:46:00.981Z,99.60
2019-03-16T03:47:01.076Z,99.50
2019-03-16T03:48:01.171Z,98.17
2019-03-16T03:49:01.266Z,97.88
2019-03-16T03:50:01.343Z,97.13
2019-03-16T03:51:01.463Z,97.22
2019-03-16T03:52:01.525Z,97.22
2019-03-16T03:53:01.626Z,96.84
2019-03-16T03:54:01.729Z,96.26
2019-03-16T03:55:01.798Z,95.79
2019-03-16T03:56:01.888Z,95.12
2019-03-16T03:57:01.978Z,95.03
2019-03-16T03:58:02.075Z,95.12
2019-03-16T03:59:02.159Z,95.89
2019-03-16T04:00:02.254Z,95.32
2019-03-16T04:01:02.340Z,95.60
2019-03-16T04:02:02.432Z,95.98
2019-03-16T04:03:02.526Z,95.98
2019-03-16T04:04:15.272Z,95.79
2019-03-16T04:05:02.710Z,96.08
2019-03-16T04:06:02.797Z,96.36
2019-03-16T04:07:02.901Z,96.94
2019-03-16T04:08:02.974Z,96.94
2019-03-16T04:09:03.065Z,97.22
2019-03-16T04:10:03.154Z,97.13
2019-03-16T04:11:03.255Z,97.22
2019-03-16T04:12:03.361Z,98.17
2019-03-16T04:13:03.445Z,97.50
2019-03-16T04:14:03.527Z,98.27
2019-03-16T04:15:03.622Z,98.55
2019-03-16T04:16:03.706Z,98.55
2019-03-16T04:17:03.794Z,97.98
2019-03-16T04:18:03.882Z,98.17
2019-03-16T04:19:03.972Z,97.88
2019-03-16T04:20:04.062Z,97.98
2019-03-16T04:21:04.162Z,98.17
2019-03-16T04:22:04.237Z,97.98
2019-03-16T04:23:04.337Z,98.83
2019-03-16T04:24:04.430Z,98.74
2019-03-16T04:25:04.512Z,98.65
2019-03-16T04:26:04.608Z,98.55
2019-03-16T04:27:15.869Z,98.17
2019-03-16T04:28:04.772Z,98.74
2019-03-16T04:29:04.871Z,98.46
2019-03-16T04:30:04.957Z,98.93
2019-03-16T04:31:05.045Z,99.31
2019-03-16T04:32:05.135Z,99.69
2019-03-16T04:33:05.226Z,99.79
2019-03-16T04:34:05.317Z,99.99
2019-03-16T04:35:05.410Z,99.99
2019-03-16T04:36:05.508Z,99.99
2019-03-16T04:37:05.596Z,99.99
2019-03-16T04:38:05.691Z,99.99
2019-03-16T04:39:05.780Z,99.98
2019-03-16T04:40:05.870Z,99.12
2019-03-16T04:41:05.961Z,99.88
2019-03-16T04:42:06.052Z,99.60
2019-03-16T04:43:06.143Z,99.22
2019-03-16T04:44:06.232Z,99.31
2019-03-16T04:45:06.322Z,98.93
2019-03-16T04:46:06.412Z,98.74
2019-03-16T04:47:06.503Z,98.83
2019-03-16T04:48:06.592Z,99.31
2019-03-16T04:49:06.686Z,99.41
2019-03-16T04:50:06.771Z,99.50
2019-03-16T04:51:06.880Z,99.31
2019-03-16T04:52:06.952Z,99.31
2019-03-16T04:53:07.042Z,99.69
2019-03-16T04:54:07.132Z,99.88
2019-03-16T04:55:07.318Z,99.98
2019-03-16T04:56:07.323Z,99.99
2019-03-16T04:57:07.416Z,99.99
2019-03-16T04:58:07.506Z,99.99
2019-03-16T04:59:07.601Z,99.99
2019-03-16T05:00:07.687Z,99.99
2019-03-16T05:01:07.779Z,99.99
2019-03-16T05:02:07.872Z,99.99
2019-03-16T05:03:08.492Z,99.99
2019-03-16T05:04:08.050Z,99.99
2019-03-16T05:05:08.149Z,99.99
2019-03-16T05:06:08.236Z,99.99
2019-03-16T05:07:08.321Z,99.99
2019-03-16T05:08:08.417Z,99.99
2019-03-16T05:09:08.506Z,99.99
2019-03-16T05:10:08.623Z,99.99
2019-03-16T05:11:08.677Z,99.99
2019-03-16T05:12:08.768Z,99.99
2019-03-16T05:13:08.858Z,99.99
2019-03-16T05:14:08.943Z,99.99
2019-03-16T05:15:09.036Z,99.99
2019-03-16T05:16:09.128Z,99.99
2019-03-16T05:17:09.219Z,99.99
2019-03-16T05:18:09.309Z,99.99
2019-03-16T05:19:09.401Z,99.99
2019-03-16T05:20:09.495Z,99.99
2019-03-16T05:21:09.581Z,99.99
2019-03-16T05:22:09.671Z,99.99
2019-03-16T05:23:09.771Z,99.69
2019-03-16T05:24:09.859Z,99.69
2019-03-16T05:25:09.957Z,99.50
2019-03-16T05:26:10.038Z,98.55
2019-03-16T05:27:10.148Z,97.98
2019-03-16T05:28:10.214Z,98.65
2019-03-16T05:29:10.303Z,98.55
2019-03-16T05:30:10.399Z,98.74
2019-03-16T05:31:10.485Z,99.41
2019-03-16T05:32:10.582Z,99.99
2019-03-16T05:33:10.666Z,99.99
2019-03-16T05:34:10.760Z,99.99
2019-03-16T05:35:10.847Z,99.99
2019-03-16T05:36:10.940Z,99.99
2019-03-16T05:37:11.042Z,99.99
2019-03-16T05:38:11.130Z,99.99
2019-03-16T05:39:11.221Z,99.99
2019-03-16T05:40:11.315Z,99.99
2019-03-16T05:41:11.402Z,99.99
2019-03-16T05:42:11.493Z,99.99
2019-03-16T05:43:11.583Z,99.99
2019-03-16T05:44:11.672Z,99.99
2019-03-16T05:45:11.764Z,99.99
2019-03-16T05:46:11.856Z,99.99
2019-03-16T05:47:11.949Z,99.99
2019-03-16T05:48:12.042Z,99.99
2019-03-16T05:49:12.126Z,99.99
2019-03-16T05:50:12.215Z,99.98
2019-03-16T05:51:12.306Z,99.99
2019-03-16T05:52:12.398Z,99.99
2019-03-16T05:53:12.488Z,99.99
2019-03-16T05:54:12.607Z,99.60
2019-03-16T05:55:12.726Z,99.79
2019-03-16T05:56:12.761Z,99.79
2019-03-16T05:57:12.889Z,99.31
2019-03-16T05:58:12.963Z,99.31
2019-03-16T05:59:13.046Z,99.88
2019-03-16T06:00:13.127Z,99.60
2019-03-16T06:01:13.217Z,99.31
2019-03-16T06:02:13.305Z,99.60
2019-03-16T06:03:13.396Z,99.12
2019-03-16T06:04:13.489Z,99.41
2019-03-16T06:05:13.576Z,98.83
2019-03-16T06:06:13.666Z,99.50
2019-03-16T06:07:13.757Z,99.22
2019-03-16T06:08:13.846Z,99.69
2019-03-16T06:09:13.934Z,99.22
2019-03-16T06:10:14.025Z,99.88
2019-03-16T06:11:14.116Z,99.69
2019-03-16T06:12:14.205Z,99.99
2019-03-16T06:13:14.303Z,99.50
2019-03-16T06:14:14.387Z,99.69
2019-03-16T06:15:14.479Z,99.50
2019-03-16T06:16:14.565Z,99.02
2019-03-16T06:17:14.649Z,99.99
2019-03-16T06:18:14.757Z,99.50
2019-03-16T06:19:14.898Z,99.41
2019-03-16T06:20:14.935Z,99.79
2019-03-16T06:21:15.022Z,99.50
2019-03-16T06:22:15.111Z,99.50
2019-03-16T06:23:15.200Z,99.41
2019-03-16T06:24:15.290Z,99.12
2019-03-16T06:25:15.382Z,98.93
2019-03-16T06:26:15.469Z,99.31
2019-03-16T06:27:15.557Z,99.31
2019-03-16T06:28:15.652Z,99.41
2019-03-16T06:29:15.744Z,99.41
2019-03-16T06:30:15.837Z,99.41
2019-03-16T06:31:15.924Z,99.31
2019-03-16T06:32:16.007Z,99.50
2019-03-16T06:33:16.110Z,99.50
2019-03-16T06:34:16.206Z,99.50
2019-03-16T06:35:24.398Z,98.74
2019-03-16T06:36:16.389Z,99.12
2019-03-16T06:37:16.479Z,98.65
2019-03-16T06:38:16.589Z,98.93
2019-03-16T06:39:16.673Z,99.41
2019-03-16T06:40:16.752Z,99.50
2019-03-16T06:41:16.841Z,99.55
2019-03-16T06:42:16.929Z,99.79
2019-03-16T06:43:17.029Z,99.99
2019-03-16T06:44:17.115Z,99.88
2019-03-16T06:45:17.205Z,99.50
2019-03-16T06:46:17.293Z,99.31
2019-03-16T06:47:17.380Z,99.31
2019-03-16T06:48:17.475Z,99.31
2019-03-16T06:49:17.561Z,99.60
2019-03-16T06:50:17.679Z,99.98
2019-03-16T06:51:17.754Z,99.99
2019-03-16T06:52:17.846Z,99.99
2019-03-16T06:53:19.582Z,99.99
2019-03-16T06:54:18.031Z,99.99
2019-03-16T06:55:18.124Z,99.31
2019-03-16T06:56:18.206Z,99.50
2019-03-16T06:57:18.310Z,99.31
2019-03-16T06:58:18.399Z,99.50
2019-03-16T06:59:18.489Z,98.74
2019-03-16T07:00:18.594Z,98.83
2019-03-16T07:01:18.661Z,98.17
2019-03-16T07:02:18.778Z,97.98
2019-03-16T07:03:18.921Z,98.17
2019-03-16T07:04:18.972Z,97.69
2019-03-16T07:05:23.131Z,97.60
2019-03-16T07:06:19.155Z,98.08
2019-03-16T07:07:19.246Z,97.60
2019-03-16T07:08:19.332Z,97.41
2019-03-16T07:09:19.423Z,97.88
2019-03-16T07:10:19.532Z,97.98
2019-03-16T07:11:19.623Z,97.69
2019-03-16T07:12:19.714Z,98.03
2019-03-16T07:13:19.802Z,97.84
2019-03-16T07:14:19.896Z,97.74
2019-03-16T07:15:19.986Z,97.84
2019-03-16T07:16:20.078Z,98.03
2019-03-16T07:17:20.169Z,97.98
2019-03-16T07:18:20.260Z,97.79
2019-03-16T07:19:20.349Z,97.08
2019-03-16T07:20:20.441Z,97.46
2019-03-16T07:21:20.533Z,97.84
2019-03-16T07:22:20.645Z,98.22
2019-03-16T07:23:20.743Z,98.03
2019-03-16T07:24:20.811Z,98.03
2019-03-16T07:25:20.883Z,97.65
2019-03-16T07:26:20.961Z,97.93
2019-03-16T07:27:26.171Z,97.74
2019-03-16T07:28:21.199Z,97.55
2019-03-16T07:29:21.281Z,97.84
2019-03-16T07:30:21.376Z,97.65
2019-03-16T07:31:21.469Z,97.84
2019-03-16T07:32:21.560Z,97.36
2019-03-16T07:33:21.649Z,96.89
2019-03-16T07:34:21.743Z,96.12
2019-03-16T07:35:21.834Z,97.55
2019-03-16T07:36:21.923Z,97.17
2019-03-16T07:37:22.017Z,97.93
2019-03-16T07:38:22.109Z,98.13
2019-03-16T07:39:22.197Z,98.03
2019-03-16T07:40:22.297Z,98.03
2019-03-16T07:41:22.387Z,98.03
2019-03-16T07:42:22.496Z,97.65
2019-03-16T07:43:22.589Z,98.13
2019-03-16T07:44:22.693Z,97.93
2019-03-16T07:45:22.800Z,98.08
2019-03-16T07:46:22.850Z,97.89
2019-03-16T07:47:22.944Z,98.27
2019-03-16T07:48:23.034Z,97.60
2019-03-16T07:49:23.128Z,97.70
2019-03-16T07:50:23.202Z,97.70
2019-03-16T07:51:23.293Z,98.08
2019-03-16T07:52:23.389Z,97.99
2019-03-16T07:53:23.472Z,97.22
2019-03-16T07:54:23.564Z,97.51
2019-03-16T07:55:23.654Z,96.75
2019-03-16T07:56:23.753Z,96.94
2019-03-16T07:57:23.843Z,97.13
2019-03-16T07:58:23.938Z,96.75
2019-03-16T07:59:24.050Z,97.03
2019-03-16T08:00:24.118Z,97.03
2019-03-16T08:01:24.216Z,97.03
2019-03-16T08:02:24.308Z,97.13
2019-03-16T08:03:24.400Z,96.46
2019-03-16T08:04:24.492Z,96.94
2019-03-16T08:05:24.585Z,97.22
2019-03-16T08:06:24.674Z,97.60
2019-03-16T08:07:24.783Z,97.13
2019-03-16T08:08:24.857Z,97.60
2019-03-16T08:09:24.953Z,97.70
2019-03-16T08:10:25.059Z,97.99
2019-03-16T08:11:25.133Z,97.99
2019-03-16T08:12:25.211Z,97.41
2019-03-16T08:13:25.292Z,97.13
2019-03-16T08:14:25.381Z,97.13
2019-03-16T08:15:27.910Z,97.70
2019-03-16T08:16:25.561Z,98.18
2019-03-16T08:17:25.658Z,99.03
2019-03-16T08:18:25.748Z,99.22
2019-03-16T08:19:25.847Z,99.69
2019-03-16T08:20:25.931Z,99.69
2019-03-16T08:21:26.020Z,98.65
2019-03-16T08:22:26.125Z,97.99
2019-03-16T08:23:26.302Z,97.70
2019-03-16T08:24:26.298Z,97.70
2019-03-16T08:25:26.402Z,97.89
2019-03-16T08:26:26.494Z,98.46
2019-03-16T08:27:26.566Z,97.89
2019-03-16T08:28:26.728Z,98.27
2019-03-16T08:29:26.753Z,97.99
2019-03-16T08:30:26.859Z,98.60
2019-03-16T08:31:26.952Z,98.70
2019-03-16T08:32:27.101Z,98.22
2019-03-16T08:33:27.134Z,98.89
2019-03-16T08:34:27.224Z,98.41
2019-03-16T08:35:27.317Z,98.41
2019-03-16T08:36:27.408Z,98.79
2019-03-16T08:37:29.674Z,98.99
2019-03-16T08:38:27.591Z,98.22
2019-03-16T08:39:27.705Z,98.32
2019-03-16T08:40:27.797Z,98.22
2019-03-16T08:41:27.892Z,98.13
2019-03-16T08:42:27.983Z,98.32
2019-03-16T08:43:28.076Z,98.03
2019-03-16T08:44:28.170Z,97.75
2019-03-16T08:45:28.260Z,97.94
2019-03-16T08:46:28.349Z,98.13
2019-03-16T08:47:31.300Z,98.32
2019-03-16T08:48:28.534Z,98.79
2019-03-16T08:49:28.653Z,98.70
2019-03-16T08:50:28.720Z,98.89
2019-03-16T08:51:28.819Z,98.22
2019-03-16T08:52:28.932Z,98.32
2019-03-16T08:53:29.087Z,98.08
2019-03-16T08:54:29.113Z,98.70
2019-03-16T08:55:29.202Z,98.94
2019-03-16T08:56:29.296Z,98.32
2019-03-16T08:57:29.388Z,98.74
2019-03-16T08:58:29.479Z,99.98
2019-03-16T08:59:29.566Z,99.99
2019-03-16T09:00:29.666Z,99.99
2019-03-16T09:01:29.756Z,99.99
2019-03-16T09:02:29.855Z,99.99
2019-03-16T09:03:42.792Z,99.99
2019-03-16T09:04:30.042Z,99.99
2019-03-16T09:05:30.157Z,99.99
2019-03-16T09:06:30.247Z,99.99
2019-03-16T09:07:30.337Z,99.99
2019-03-16T09:08:30.436Z,99.99
2019-03-16T09:09:30.525Z,99.99
2019-03-16T09:10:30.623Z,99.99
2019-03-16T09:11:30.710Z,99.99
2019-03-16T09:12:30.785Z,99.99
2019-03-16T09:13:30.887Z,99.99
2019-03-16T09:14:30.971Z,99.99
2019-03-16T09:15:31.062Z,99.99
2019-03-16T09:16:31.142Z,99.99
2019-03-16T09:17:31.236Z,99.99
2019-03-16T09:18:31.341Z,99.99
2019-03-16T09:19:31.417Z,99.99
2019-03-16T09:20:31.514Z,99.99
2019-03-16T09:21:31.602Z,99.99
2019-03-16T09:22:31.690Z,99.99
2019-03-16T09:23:31.783Z,99.99
2019-03-16T09:24:31.873Z,99.99
2019-03-16T09:25:31.966Z,99.99
2019-03-16T09:26:32.065Z,99.99
2019-03-16T09:27:32.156Z,99.99
2019-03-16T09:28:32.244Z,99.99
2019-03-16T09:29:32.339Z,99.99
2019-03-16T09:30:32.432Z,99.99
2019-03-16T09:31:32.523Z,99.99
2019-03-16T09:32:32.613Z,99.99
2019-03-16T09:33:32.728Z,99.99
2019-03-16T09:34:32.815Z,99.99
2019-03-16T09:35:32.879Z,99.99
2019-03-16T09:36:32.978Z,99.99
2019-03-16T09:37:33.091Z,99.99
2019-03-16T09:38:33.189Z,99.99
2019-03-16T09:39:33.276Z,99.99
2019-03-16T09:40:33.387Z,99.99
2019-03-16T09:41:33.466Z,99.99
2019-03-16T09:42:33.559Z,99.99
2019-03-16T09:43:33.654Z,99.99
2019-03-16T09:44:33.750Z,99.99
2019-03-16T09:45:33.836Z,99.99
2019-03-16T09:46:33.927Z,99.99
2019-03-16T09:47:34.020Z,99.99
2019-03-16T09:48:34.111Z,99.99
2019-03-16T09:49:34.205Z,99.99
2019-03-16T09:50:34.288Z,99.99
2019-03-16T09:51:34.375Z,99.99
2019-03-16T09:52:34.472Z,99.99
2019-03-16T09:53:34.565Z,99.99
2019-03-16T09:54:34.660Z,99.99
2019-03-16T09:55:35.324Z,99.99
2019-03-16T09:56:34.837Z,99.99
2019-03-16T09:57:34.927Z,99.99
2019-03-16T09:58:35.041Z,99.99
2019-03-16T09:59:35.110Z,99.99
2019-03-16T10:00:35.198Z,99.99
2019-03-16T10:01:35.287Z,99.99
2019-03-16T10:02:35.375Z,99.99
2019-03-16T10:03:35.469Z,99.99
2019-03-16T10:04:35.562Z,99.99
2019-03-16T10:05:35.653Z,99.99
2019-03-16T10:06:35.751Z,99.99
2019-03-16T10:07:35.840Z,99.99
2019-03-16T10:08:35.935Z,99.95
2019-03-16T10:09:36.024Z,99.99
2019-03-16T10:10:36.115Z,99.71
2019-03-16T10:11:36.215Z,99.61
2019-03-16T10:12:36.301Z,99.52
2019-03-16T10:13:36.392Z,99.42
2019-03-16T10:14:37.374Z,98.94
2019-03-16T10:15:36.578Z,98.85
2019-03-16T10:16:36.696Z,99.04
2019-03-16T10:17:36.773Z,98.37
2019-03-16T10:18:36.833Z,97.80
2019-03-16T10:19:36.929Z,97.99
2019-03-16T10:20:37.088Z,98.08
2019-03-16T10:21:37.117Z,97.89
2019-03-16T10:22:37.216Z,97.61
2019-03-16T10:23:37.305Z,97.80
2019-03-16T10:24:37.398Z,96.98
2019-03-16T10:25:37.489Z,96.32
2019-03-16T10:26:37.759Z,96.70
2019-03-16T10:27:37.672Z,96.03
2019-03-16T10:28:43.506Z,95.94
2019-03-16T10:29:37.851Z,96.03
2019-03-16T10:30:37.948Z,95.75
2019-03-16T10:31:38.041Z,95.56
2019-03-16T10:32:38.132Z,96.13
2019-03-16T10:33:38.228Z,96.61
2019-03-16T10:34:38.342Z,96.42
2019-03-16T10:35:38.435Z,95.27
2019-03-16T10:36:38.530Z,94.79
2019-03-16T10:37:38.625Z,94.89
2019-03-16T10:38:38.725Z,95.75
2019-03-16T10:39:38.819Z,95.32
2019-03-16T10:40:38.893Z,95.61
2019-03-16T10:41:38.978Z,95.41
2019-03-16T10:42:39.065Z,94.22
2019-03-16T10:43:39.173Z,95.27
2019-03-16T10:44:39.262Z,94.89
2019-03-16T10:45:39.358Z,95.17
2019-03-16T10:46:39.451Z,95.56
2019-03-16T10:47:39.564Z,96.13
2019-03-16T10:48:39.659Z,96.32
2019-03-16T10:49:39.757Z,95.08
2019-03-16T10:50:39.875Z,95.94
2019-03-16T10:51:39.960Z,95.41
2019-03-16T10:52:40.134Z,94.84
2019-03-16T10:53:40.145Z,94.60
2019-03-16T10:54:40.240Z,95.32
2019-03-16T10:55:40.332Z,95.03
2019-03-16T10:56:40.449Z,94.84
2019-03-16T10:57:40.560Z,94.84
2019-03-16T10:58:40.646Z,95.03
2019-03-16T10:59:40.794Z,94.84
2019-03-16T11:00:40.876Z,95.41
2019-03-16T11:01:40.989Z,95.22
2019-03-16T11:02:41.080Z,95.22
2019-03-16T11:03:41.151Z,94.93
2019-03-16T11:04:41.246Z,93.93
2019-03-16T11:05:41.343Z,93.45
2019-03-16T11:06:41.440Z,92.50
2019-03-16T11:07:41.526Z,92.88
2019-03-16T11:08:41.643Z,91.16
2019-03-16T11:09:41.709Z,91.74
2019-03-16T11:10:41.805Z,91.06
2019-03-16T11:11:41.896Z,91.45
2019-03-16T11:12:41.988Z,90.78
2019-03-16T11:13:42.082Z,91.16
2019-03-16T11:14:42.186Z,92.21
2019-03-16T11:15:42.278Z,92.21
2019-03-16T11:16:42.375Z,91.97
2019-03-16T11:17:42.474Z,92.74
2019-03-16T11:18:42.569Z,92.02
2019-03-16T11:19:42.656Z,91.83
2019-03-16T11:20:42.753Z,91.30
2019-03-16T11:21:42.888Z,91.16
2019-03-16T11:22:42.966Z,90.97
2019-03-16T11:23:43.040Z,91.06
2019-03-16T11:24:43.096Z,90.39
2019-03-16T11:25:43.214Z,90.44
2019-03-16T11:26:43.302Z,89.92
2019-03-16T11:27:43.378Z,90.88
2019-03-16T11:28:43.482Z,90.97
2019-03-16T11:29:43.587Z,91.16
2019-03-16T11:30:43.681Z,89.25
2019-03-16T11:31:43.778Z,89.44
2019-03-16T11:32:43.859Z,89.67
2019-03-16T11:33:43.955Z,89.48
2019-03-16T11:34:44.047Z,89.63
2019-03-16T11:35:44.144Z,89.15
2019-03-16T11:36:44.237Z,89.34
2019-03-16T11:37:44.330Z,89.67
2019-03-16T11:38:44.422Z,88.91
2019-03-16T11:39:44.529Z,88.68
2019-03-16T11:40:44.615Z,89.63
2019-03-16T11:41:44.718Z,89.34
2019-03-16T11:42:44.804Z,88.39
2019-03-16T11:43:44.904Z,88.39
2019-03-16T11:44:45.039Z,88.62
2019-03-16T11:45:45.108Z,88.05
2019-03-16T11:46:45.182Z,88.34
2019-03-16T11:47:45.275Z,87.95
2019-03-16T11:48:45.368Z,87.48
2019-03-16T11:49:45.464Z,88.15
2019-03-16T11:50:45.559Z,87.48
2019-03-16T11:51:45.655Z,87.95
2019-03-16T11:52:45.761Z,88.15
2019-03-16T11:53:45.855Z,88.34
2019-03-16T11:54:45.923Z,87.95
2019-03-16T11:55:46.029Z,89.01
2019-03-16T11:56:46.115Z,89.96
2019-03-16T11:57:46.211Z,91.30
2019-03-16T11:58:46.308Z,91.45
2019-03-16T11:59:46.443Z,91.35
2019-03-16T12:00:46.479Z,92.74
2019-03-16T12:01:46.570Z,93.88
2019-03-16T12:02:46.664Z,94.84
2019-03-16T12:03:46.783Z,94.74
2019-03-16T12:04:46.850Z,94.27
2019-03-16T12:05:46.942Z,95.32
2019-03-16T12:06:47.048Z,96.27
2019-03-16T12:07:47.131Z,96.17
2019-03-16T12:08:47.225Z,96.32
2019-03-16T12:09:47.320Z,96.13
2019-03-16T12:10:47.411Z,96.70
2019-03-16T12:11:47.506Z,98.23
2019-03-16T12:12:47.622Z,98.32
2019-03-16T12:13:47.714Z,97.85
2019-03-16T12:14:47.806Z,96.89
2019-03-16T12:15:47.901Z,96.98
2019-03-16T12:16:47.994Z,97.56
2019-03-16T12:17:48.084Z,96.98
2019-03-16T12:18:48.178Z,96.80
2019-03-16T12:19:48.289Z,97.18
2019-03-16T12:20:48.405Z,97.27
2019-03-16T12:21:48.473Z,97.18
2019-03-16T12:22:48.567Z,97.32
2019-03-16T12:23:48.683Z,97.94
2019-03-16T12:24:48.754Z,97.18
2019-03-16T12:25:48.844Z,97.75
2019-03-16T12:26:48.933Z,98.32
2019-03-16T12:27:49.048Z,97.94
2019-03-16T12:28:49.114Z,98.52
2019-03-16T12:29:49.212Z,98.80
2019-03-16T12:30:49.308Z,98.42
2019-03-16T12:31:49.399Z,98.99
2019-03-16T12:32:49.485Z,99.08
2019-03-16T12:33:49.577Z,98.52
2019-03-16T12:34:49.671Z,99.76
2019-03-16T12:35:49.764Z,99.99
2019-03-16T12:36:49.855Z,98.52
2019-03-16T12:37:49.957Z,98.13
2019-03-16T12:38:50.043Z,97.85
2019-03-16T12:39:50.141Z,96.61
2019-03-16T12:40:50.233Z,94.89
2019-03-16T12:41:50.328Z,94.74
2019-03-16T12:42:50.421Z,95.03
2019-03-16T12:43:50.514Z,95.41
2019-03-16T12:44:50.606Z,95.12
2019-03-16T12:45:50.700Z,93.70
2019-03-16T12:46:50.807Z,94.36
2019-03-16T12:47:50.889Z,94.36
2019-03-16T12:48:50.991Z,93.60
2019-03-16T12:49:51.100Z,93.60
2019-03-16T12:50:54.193Z,93.50
2019-03-16T12:51:51.253Z,92.83
2019-03-16T12:52:51.352Z,93.02
2019-03-16T12:53:51.446Z,93.21